createdAt,value
2017-08-29T00:02:01.863Z,15.80
2017-08-29T00:04:30.135Z,15.80
2017-08-29T00:06:58.397Z,15.80
2017-08-29T00:09:27.531Z,15.80
2017-08-29T00:11:55.811Z,15.70
2017-08-29T00:14:24.081Z,15.70
2017-08-29T00:16:52.354Z,15.60
2017-08-29T00:19:20.606Z,15.60
2017-08-29T00:21:48.855Z,15.60
2017-08-29T00:24:17.157Z,15.70
2017-08-29T00:26:45.426Z,15.70
2017-08-29T00:29:13.650Z,15.70
2017-08-29T00:31:41.913Z,15.60
2017-08-29T00:34:10.174Z,15.70
2017-08-29T00:36:38.447Z,15.60
2017-08-29T00:39:07.735Z,15.70
2017-08-29T00:41:36.002Z,15.60
2017-08-29T00:44:04.255Z,15.50
2017-08-29T00:46:32.613Z,15.60
2017-08-29T00:49:00.894Z,15.70
2017-08-29T00:51:29.111Z,15.70
2017-08-29T00:53:57.414Z,15.70
2017-08-29T00:56:25.650Z,15.60
2017-08-29T00:58:53.898Z,15.60
2017-08-29T01:01:22.149Z,15.50
2017-08-29T01:03:50.430Z,15.50
2017-08-29T01:06:18.730Z,15.50
2017-08-29T01:08:46.986Z,15.40
2017-08-29T01:11:15.269Z,15.40
2017-08-29T01:13:43.562Z,15.50
2017-08-29T01:16:11.840Z,15.50
2017-08-29T01:18:40.084Z,15.40
2017-08-29T01:21:08.357Z,15.40
2017-08-29T01:23:36.629Z,15.30
2017-08-29T01:26:04.866Z,15.30
2017-08-29T01:28:33.225Z,15.40
2017-08-29T01:31:01.490Z,15.30
2017-08-29T01:33:30.585Z,15.30
2017-08-29T01:35:58.839Z,15.30
2017-08-29T01:38:27.122Z,15.20
2017-08-29T01:40:55.406Z,15.20
2017-08-29T01:43:23.676Z,15.20
2017-08-29T01:45:51.976Z,15.20
2017-08-29T01:48:20.226Z,15.20
2017-08-29T01:50:48.511Z,15.20
2017-08-29T01:53:16.796Z,15.20
2017-08-29T01:55:45.834Z,15.20
2017-08-29T01:58:14.090Z,15.20
2017-08-29T02:00:42.342Z,15.10
2017-08-29T02:03:10.617Z,15.20
2017-08-29T02:05:38.878Z,15.10
2017-08-29T02:08:07.154Z,15.10
2017-08-29T02:10:35.424Z,15.10
2017-08-29T02:13:03.681Z,15.00
2017-08-29T02:15:31.927Z,15.10
2017-08-29T02:18:00.161Z,15.00
2017-08-29T02:20:28.445Z,15.00
2017-08-29T02:22:56.716Z,14.90
2017-08-29T02:25:24.972Z,14.90
2017-08-29T02:27:53.230Z,14.90
2017-08-29T02:30:21.523Z,15.00
2017-08-29T02:32:49.768Z,15.00
2017-08-29T02:35:18.016Z,15.00
2017-08-29T02:37:46.329Z,15.00
2017-08-29T02:40:14.577Z,15.10
2017-08-29T02:42:42.835Z,15.10
2017-08-29T02:45:11.085Z,15.20
2017-08-29T02:47:39.335Z,15.30
2017-08-29T02:50:07.598Z,15.40
2017-08-29T02:52:35.838Z,15.50
2017-08-29T02:55:04.073Z,15.60
2017-08-29T02:57:32.341Z,15.60
2017-08-29T03:00:00.587Z,15.60
2017-08-29T03:02:28.891Z,15.60
2017-08-29T03:04:57.123Z,15.70
2017-08-29T03:07:25.387Z,15.80
2017-08-29T03:09:53.634Z,15.90
2017-08-29T03:12:21.900Z,16.00
2017-08-29T03:14:50.158Z,16.00
2017-08-29T03:17:18.402Z,16.00
2017-08-29T03:19:46.661Z,16.10
2017-08-29T03:22:15.662Z,16.10
2017-08-29T03:24:43.917Z,16.10
2017-08-29T03:27:12.154Z,16.10
2017-08-29T03:29:40.392Z,16.10
2017-08-29T03:32:08.657Z,16.10
2017-08-29T03:34:37.847Z,16.10
2017-08-29T03:37:06.107Z,16.10
2017-08-29T03:39:34.325Z,16.10
2017-08-29T03:42:02.599Z,16.10
2017-08-29T03:44:30.842Z,16.00
2017-08-29T03:46:59.105Z,16.00
2017-08-29T03:49:27.357Z,16.00
2017-08-29T03:51:55.617Z,16.00
2017-08-29T03:54:23.851Z,15.90
2017-08-29T03:56:52.115Z,15.90
2017-08-29T03:59:20.382Z,15.90
2017-08-29T04:01:48.600Z,15.80
2017-08-29T04:04:16.850Z,15.90
2017-08-29T04:06:45.125Z,15.90
2017-08-29T04:09:13.408Z,15.80
2017-08-29T04:11:41.675Z,15.80
2017-08-29T04:14:09.922Z,15.80
2017-08-29T04:16:38.171Z,15.80
2017-08-29T04:19:06.444Z,15.80
2017-08-29T04:21:34.704Z,15.70
2017-08-29T04:24:02.926Z,15.70
2017-08-29T04:26:31.193Z,15.70
2017-08-29T04:28:59.438Z,15.80
2017-08-29T04:31:27.669Z,15.80
2017-08-29T04:33:55.949Z,15.80
2017-08-29T04:36:24.213Z,15.80
2017-08-29T04:38:52.486Z,15.80
2017-08-29T04:41:20.738Z,15.80
2017-08-29T04:43:49.010Z,15.80
2017-08-29T04:46:17.282Z,15.80
2017-08-29T04:48:45.557Z,15.80
2017-08-29T04:51:13.843Z,15.80
2017-08-29T04:53:42.069Z,15.90
2017-08-29T04:56:10.417Z,15.90
2017-08-29T04:58:38.689Z,16.00
2017-08-29T05:01:06.930Z,16.10
2017-08-29T05:03:35.234Z,16.10
2017-08-29T05:06:03.505Z,16.00
2017-08-29T05:08:31.776Z,16.00
2017-08-29T05:11:00.024Z,16.00
2017-08-29T05:13:28.326Z,16.00
2017-08-29T05:15:56.585Z,16.00
2017-08-29T05:18:24.822Z,16.10
2017-08-29T05:20:53.067Z,16.10
2017-08-29T05:23:21.323Z,16.20
2017-08-29T05:25:49.594Z,16.20
2017-08-29T05:28:17.930Z,16.30
2017-08-29T05:30:46.252Z,16.30
2017-08-29T05:33:14.490Z,16.30
2017-08-29T05:35:42.754Z,16.40
2017-08-29T05:38:10.996Z,16.40
2017-08-29T05:40:39.271Z,16.40
2017-08-29T05:43:07.570Z,16.40
2017-08-29T05:45:35.815Z,16.50
2017-08-29T05:48:04.053Z,16.50
2017-08-29T05:50:32.306Z,16.60
2017-08-29T05:53:00.543Z,16.70
2017-08-29T05:55:28.796Z,16.80
2017-08-29T05:57:57.020Z,16.80
2017-08-29T06:00:25.299Z,16.90
2017-08-29T06:02:54.402Z,17.10
2017-08-29T06:05:22.713Z,17.00
2017-08-29T06:07:50.955Z,17.20
2017-08-29T06:10:19.215Z,17.20
2017-08-29T06:12:47.494Z,17.30
2017-08-29T06:15:15.953Z,17.30
2017-08-29T06:17:44.167Z,17.50
2017-08-29T06:20:12.461Z,17.50
2017-08-29T06:22:40.764Z,17.50
2017-08-29T06:25:09.018Z,17.50
2017-08-29T06:27:37.241Z,17.50
2017-08-29T06:30:05.508Z,17.70
2017-08-29T06:32:33.765Z,17.80
2017-08-29T06:35:02.067Z,17.80
2017-08-29T06:37:30.332Z,18.00
2017-08-29T06:39:58.700Z,18.00
2017-08-29T06:42:26.950Z,18.00
2017-08-29T06:44:55.187Z,18.20
2017-08-29T06:47:23.510Z,18.20
2017-08-29T06:49:51.772Z,18.30
2017-08-29T06:52:20.026Z,18.40
2017-08-29T06:54:48.308Z,18.40
2017-08-29T06:57:16.594Z,18.50
2017-08-29T06:59:44.998Z,18.60
2017-08-29T07:02:13.285Z,18.70
2017-08-29T07:04:41.555Z,18.80
2017-08-29T07:07:09.837Z,18.90
2017-08-29T07:09:38.113Z,19.00
2017-08-29T07:12:06.343Z,19.10
2017-08-29T07:14:35.166Z,19.10
2017-08-29T07:17:03.415Z,19.30
2017-08-29T07:19:31.736Z,19.40
2017-08-29T07:21:59.993Z,19.50
2017-08-29T07:24:28.242Z,19.60
2017-08-29T07:26:56.507Z,19.80
2017-08-29T07:29:24.778Z,19.90
2017-08-29T07:31:53.108Z,20.00
2017-08-29T07:34:21.369Z,20.20
2017-08-29T07:36:49.734Z,20.30
2017-08-29T07:39:18.020Z,20.50
2017-08-29T07:41:46.258Z,20.60
2017-08-29T07:44:14.543Z,20.70
2017-08-29T07:46:42.802Z,20.80
2017-08-29T07:49:11.116Z,21.00
2017-08-29T07:51:39.416Z,21.10
2017-08-29T07:54:07.687Z,21.20
2017-08-29T07:56:35.951Z,21.30
2017-08-29T07:59:04.223Z,21.30
2017-08-29T08:01:32.639Z,21.40
2017-08-29T08:04:01.694Z,21.50
2017-08-29T08:06:29.986Z,21.70
2017-08-29T08:08:58.236Z,21.80
2017-08-29T08:11:26.528Z,21.90
2017-08-29T08:13:54.806Z,21.90
2017-08-29T08:16:23.053Z,22.00
2017-08-29T08:18:51.434Z,22.10
2017-08-29T08:21:19.686Z,22.20
2017-08-29T08:23:47.940Z,22.30
2017-08-29T08:26:16.212Z,22.50
2017-08-29T08:28:44.479Z,22.50
2017-08-29T08:31:12.734Z,22.70
2017-08-29T08:33:41.003Z,22.80
2017-08-29T08:36:09.236Z,22.90
2017-08-29T08:38:37.498Z,23.10
2017-08-29T08:41:05.770Z,23.10
2017-08-29T08:43:34.005Z,23.20
2017-08-29T08:46:02.274Z,23.30
2017-08-29T08:48:30.557Z,23.40
2017-08-29T08:50:58.789Z,23.60
2017-08-29T08:53:27.086Z,23.70
2017-08-29T08:55:55.311Z,23.80
2017-08-29T08:58:23.601Z,24.00
2017-08-29T09:00:51.858Z,24.10
2017-08-29T09:03:20.153Z,24.20
2017-08-29T09:05:48.374Z,24.30
2017-08-29T09:08:21.471Z,24.30
2017-08-29T09:10:49.690Z,24.50
2017-08-29T09:13:18.738Z,24.70
2017-08-29T09:15:46.983Z,24.70
2017-08-29T09:18:15.259Z,24.70
2017-08-29T09:20:43.540Z,24.90
2017-08-29T09:23:11.804Z,25.00
2017-08-29T09:25:40.077Z,25.00
2017-08-29T09:28:08.454Z,25.10
2017-08-29T09:30:36.710Z,25.20
2017-08-29T09:33:04.993Z,25.30
2017-08-29T09:35:33.285Z,25.50
2017-08-29T09:38:01.538Z,25.50
2017-08-29T09:40:29.780Z,25.60
2017-08-29T09:42:58.031Z,25.70
2017-08-29T09:45:26.349Z,25.70
2017-08-29T09:47:54.601Z,25.90
2017-08-29T09:50:22.874Z,25.90
2017-08-29T09:52:51.159Z,26.00
2017-08-29T09:55:19.426Z,26.00
2017-08-29T09:57:47.697Z,25.90
2017-08-29T10:00:15.947Z,26.00
2017-08-29T10:02:44.221Z,26.10
2017-08-29T10:05:12.487Z,26.00
2017-08-29T10:07:40.747Z,26.10
2017-08-29T10:10:09.002Z,26.10
2017-08-29T10:12:37.267Z,26.10
2017-08-29T10:15:05.565Z,26.10
2017-08-29T10:17:33.803Z,26.20
2017-08-29T10:20:02.105Z,26.40
2017-08-29T10:22:30.396Z,26.50
2017-08-29T10:24:58.660Z,26.60
2017-08-29T10:27:26.959Z,26.50
2017-08-29T10:29:55.740Z,26.40
2017-08-29T10:32:24.056Z,26.50
2017-08-29T10:34:52.290Z,26.40
2017-08-29T10:37:20.595Z,26.40
2017-08-29T10:39:48.854Z,26.50
2017-08-29T10:42:17.145Z,26.50
2017-08-29T10:44:45.410Z,26.40
2017-08-29T10:47:13.740Z,26.50
2017-08-29T10:49:41.966Z,26.60
2017-08-29T10:52:10.258Z,26.70
2017-08-29T10:54:38.527Z,26.70
2017-08-29T10:57:06.865Z,26.70
2017-08-29T10:59:35.115Z,26.80
2017-08-29T11:02:03.429Z,26.70
2017-08-29T11:04:31.708Z,26.70
2017-08-29T11:06:59.990Z,26.70
2017-08-29T11:09:28.252Z,26.60
2017-08-29T11:11:56.510Z,26.60
2017-08-29T11:14:24.781Z,26.60
2017-08-29T11:16:53.051Z,26.60
2017-08-29T11:19:21.331Z,26.70
2017-08-29T11:21:49.587Z,26.70
2017-08-29T11:24:17.863Z,26.70
2017-08-29T11:26:46.126Z,26.80
2017-08-29T11:29:15.254Z,26.90
2017-08-29T11:31:43.483Z,27.00
2017-08-29T11:34:11.791Z,27.00
2017-08-29T11:36:40.025Z,27.10
2017-08-29T11:39:08.292Z,27.20
2017-08-29T11:41:36.570Z,27.10
2017-08-29T11:44:04.806Z,27.30
2017-08-29T11:46:33.062Z,27.40
2017-08-29T11:49:01.336Z,27.30
2017-08-29T11:51:29.611Z,27.20
2017-08-29T11:53:57.865Z,27.30
2017-08-29T11:56:26.160Z,27.30
2017-08-29T11:58:54.409Z,27.20
2017-08-29T12:01:22.684Z,27.30
2017-08-29T12:03:50.974Z,27.50
2017-08-29T12:06:19.191Z,27.60
2017-08-29T12:08:47.486Z,27.70
2017-08-29T12:11:15.724Z,27.80
2017-08-29T12:13:43.992Z,27.90
2017-08-29T12:16:12.335Z,27.80
2017-08-29T12:18:40.557Z,27.90
2017-08-29T12:21:08.831Z,27.90
2017-08-29T12:23:37.087Z,27.80
2017-08-29T12:26:05.330Z,27.90
2017-08-29T12:28:33.587Z,28.00
2017-08-29T12:31:01.909Z,28.10
2017-08-29T12:33:30.181Z,28.20
2017-08-29T12:35:58.480Z,28.20
2017-08-29T12:38:26.725Z,28.30
2017-08-29T12:40:55.002Z,28.40
2017-08-29T12:43:23.270Z,28.20
2017-08-29T12:45:51.535Z,28.40
2017-08-29T12:48:19.794Z,28.60
2017-08-29T12:50:48.039Z,28.50
2017-08-29T12:53:16.397Z,28.50
2017-08-29T12:55:44.655Z,28.70
2017-08-29T12:58:12.895Z,28.80
2017-08-29T13:00:41.197Z,28.90
2017-08-29T13:03:09.605Z,28.90
2017-08-29T13:05:37.882Z,28.60
2017-08-29T13:08:06.158Z,28.30
2017-08-29T13:10:34.444Z,28.40
2017-08-29T13:13:02.670Z,28.50
2017-08-29T13:15:30.913Z,28.60
2017-08-29T13:17:59.220Z,28.70
2017-08-29T13:20:27.504Z,28.60
2017-08-29T13:22:55.765Z,28.70
2017-08-29T13:25:24.029Z,28.80
2017-08-29T13:27:52.293Z,28.70
2017-08-29T13:30:20.571Z,28.80
2017-08-29T13:32:48.838Z,28.80
2017-08-29T13:35:17.074Z,28.70
2017-08-29T13:37:45.348Z,28.80
2017-08-29T13:40:13.598Z,28.90
2017-08-29T13:42:41.852Z,28.90
2017-08-29T13:45:10.130Z,29.00
2017-08-29T13:47:38.415Z,29.20
2017-08-29T13:50:06.680Z,29.30
2017-08-29T13:52:34.893Z,29.40
2017-08-29T13:55:03.175Z,29.40
2017-08-29T13:57:31.451Z,29.00
2017-08-29T13:59:59.773Z,29.00
2017-08-29T14:02:28.022Z,29.00
2017-08-29T14:04:56.305Z,29.10
2017-08-29T14:07:24.620Z,29.20
2017-08-29T14:09:52.833Z,29.30
2017-08-29T14:12:21.105Z,29.00
2017-08-29T14:14:49.378Z,28.90
2017-08-29T14:17:17.640Z,28.90
2017-08-29T14:19:45.896Z,29.00
2017-08-29T14:22:14.151Z,29.20
2017-08-29T14:24:42.403Z,29.10
2017-08-29T14:27:10.638Z,29.20
2017-08-29T14:29:38.905Z,29.20
2017-08-29T14:32:07.278Z,29.40
2017-08-29T14:34:35.507Z,29.40
2017-08-29T14:37:03.763Z,29.40
2017-08-29T14:39:32.037Z,29.50
2017-08-29T14:42:00.290Z,29.40
2017-08-29T14:44:28.551Z,29.20
2017-08-29T14:47:08.637Z,29.00
2017-08-29T14:49:36.925Z,29.10
2017-08-29T14:52:05.990Z,29.10
2017-08-29T14:54:34.239Z,29.20
2017-08-29T14:57:02.482Z,29.30
2017-08-29T14:59:30.750Z,29.30
2017-08-29T15:01:59.280Z,29.30
2017-08-29T15:04:27.529Z,29.40
2017-08-29T15:06:55.810Z,29.10
2017-08-29T15:09:24.104Z,29.00
2017-08-29T15:11:52.347Z,29.00
2017-08-29T15:14:20.632Z,29.10
2017-08-29T15:16:48.889Z,29.00
2017-08-29T15:19:17.144Z,28.90
2017-08-29T15:21:45.374Z,28.90
2017-08-29T15:24:13.642Z,28.90
2017-08-29T15:26:41.916Z,28.90
2017-08-29T15:29:10.147Z,29.00
2017-08-29T15:31:38.395Z,28.90
2017-08-29T15:34:06.673Z,28.90
2017-08-29T15:36:34.958Z,29.00
2017-08-29T15:39:03.187Z,29.10
2017-08-29T15:41:31.452Z,29.10
2017-08-29T15:44:00.498Z,29.10
2017-08-29T15:46:28.780Z,29.10
2017-08-29T15:48:57.028Z,29.20
2017-08-29T15:51:25.303Z,29.20
2017-08-29T15:53:53.578Z,29.20
2017-08-29T15:56:21.855Z,28.80
2017-08-29T15:58:50.102Z,28.70
2017-08-29T16:01:18.340Z,28.70
2017-08-29T16:03:46.618Z,28.80
2017-08-29T16:06:14.880Z,28.90
2017-08-29T16:08:43.157Z,28.90
2017-08-29T16:11:11.390Z,28.90
2017-08-29T16:13:39.701Z,29.00
2017-08-29T16:16:07.962Z,29.00
2017-08-29T16:18:36.285Z,29.00
2017-08-29T16:21:04.519Z,29.00
2017-08-29T16:23:33.597Z,28.90
2017-08-29T16:26:01.885Z,28.90
2017-08-29T16:28:30.118Z,28.70
2017-08-29T16:30:58.396Z,28.70
2017-08-29T16:33:26.651Z,28.70
2017-08-29T16:35:55.382Z,28.70
2017-08-29T16:38:23.607Z,28.70
2017-08-29T16:40:51.865Z,28.70
2017-08-29T16:43:20.935Z,28.60
2017-08-29T16:45:49.229Z,28.60
2017-08-29T16:48:17.504Z,28.50
2017-08-29T16:50:45.862Z,28.40
2017-08-29T16:53:14.127Z,28.30
2017-08-29T16:55:42.366Z,28.30
2017-08-29T16:58:10.670Z,28.20
2017-08-29T17:00:38.956Z,28.20
2017-08-29T17:03:07.216Z,28.10
2017-08-29T17:05:35.478Z,28.00
2017-08-29T17:08:03.737Z,28.10
2017-08-29T17:10:32.025Z,28.10
2017-08-29T17:13:00.292Z,28.00
2017-08-29T17:15:28.551Z,27.60
2017-08-29T17:17:56.829Z,27.50
2017-08-29T17:20:25.107Z,27.40
2017-08-29T17:22:54.153Z,27.10
2017-08-29T17:25:22.459Z,27.10
2017-08-29T17:27:50.752Z,26.90
2017-08-29T17:30:18.987Z,26.70
2017-08-29T17:32:47.297Z,26.60
2017-08-29T17:35:15.565Z,26.50
2017-08-29T17:37:43.821Z,26.30
2017-08-29T17:40:12.072Z,26.20
2017-08-29T17:42:40.375Z,26.10
2017-08-29T17:45:08.635Z,26.00
2017-08-29T17:47:36.973Z,25.70
2017-08-29T17:50:05.253Z,25.60
2017-08-29T17:52:33.548Z,25.50
2017-08-29T17:55:01.819Z,25.40
2017-08-29T17:57:30.101Z,25.20
2017-08-29T17:59:58.376Z,25.10
2017-08-29T18:02:26.655Z,25.10
2017-08-29T18:04:54.909Z,24.90
2017-08-29T18:07:23.235Z,24.90
2017-08-29T18:09:51.459Z,24.80
2017-08-29T18:12:19.801Z,24.80
2017-08-29T18:14:48.079Z,24.70
2017-08-29T18:17:16.364Z,24.60
2017-08-29T18:19:44.693Z,24.60
2017-08-29T18:22:12.955Z,24.50
2017-08-29T18:24:41.291Z,24.50
2017-08-29T18:27:09.587Z,24.30
2017-08-29T18:29:38.688Z,24.20
2017-08-29T18:32:07.465Z,24.10
2017-08-29T18:34:35.725Z,23.90
2017-08-29T18:37:03.994Z,23.80
2017-08-29T18:39:32.283Z,23.80
2017-08-29T18:42:00.586Z,23.80
2017-08-29T18:44:28.975Z,23.60
2017-08-29T18:46:57.317Z,23.60
2017-08-29T18:49:25.645Z,23.60
2017-08-29T18:51:53.938Z,23.40
2017-08-29T18:54:22.261Z,23.30
2017-08-29T18:56:50.583Z,23.10
2017-08-29T18:59:18.869Z,22.90
2017-08-29T19:01:47.179Z,22.90
2017-08-29T19:04:15.486Z,22.90
2017-08-29T19:06:43.789Z,22.80
2017-08-29T19:09:12.096Z,22.70
2017-08-29T19:11:40.405Z,22.70
2017-08-29T19:14:08.829Z,22.70
2017-08-29T19:16:37.969Z,22.50
2017-08-29T19:19:06.260Z,22.40
2017-08-29T19:21:34.558Z,22.40
2017-08-29T19:24:03.575Z,22.30
2017-08-29T19:26:31.878Z,22.20
2017-08-29T19:29:00.154Z,22.00
2017-08-29T19:31:28.514Z,21.90
2017-08-29T19:33:56.772Z,21.70
2017-08-29T19:36:25.093Z,21.70
2017-08-29T19:38:54.239Z,21.70
2017-08-29T19:41:23.738Z,21.70
2017-08-29T19:43:52.574Z,21.70
2017-08-29T19:46:21.621Z,21.50
2017-08-29T19:48:51.163Z,21.50
2017-08-29T19:51:20.178Z,21.40
2017-08-29T19:53:48.531Z,21.40
2017-08-29T19:56:16.815Z,21.30
2017-08-29T19:58:45.089Z,21.20
2017-08-29T20:01:13.427Z,21.20
2017-08-29T20:03:41.729Z,21.20
2017-08-29T20:06:10.056Z,21.10
2017-08-29T20:08:38.314Z,20.90
2017-08-29T20:11:06.703Z,20.80
2017-08-29T20:13:34.985Z,20.80
2017-08-29T20:16:03.263Z,20.80
2017-08-29T20:18:31.567Z,20.80
2017-08-29T20:20:59.834Z,20.70
2017-08-29T20:23:28.125Z,20.60
2017-08-29T20:25:56.421Z,20.50
2017-08-29T20:28:24.704Z,20.50
2017-08-29T20:30:52.963Z,20.50
2017-08-29T20:33:21.271Z,20.40
2017-08-29T20:35:49.533Z,20.40
2017-08-29T20:38:17.848Z,20.30
2017-08-29T20:40:46.166Z,20.30
2017-08-29T20:43:14.505Z,20.30
2017-08-29T20:45:42.748Z,20.20
2017-08-29T20:48:11.067Z,20.20
2017-08-29T20:50:39.326Z,20.20
2017-08-29T20:53:07.610Z,20.20
2017-08-29T20:55:35.853Z,20.10
2017-08-29T20:58:04.127Z,20.10
2017-08-29T21:00:32.442Z,20.20
2017-08-29T21:03:01.639Z,20.20
2017-08-29T21:05:29.917Z,20.20
2017-08-29T21:07:58.220Z,20.30
2017-08-29T21:10:26.534Z,20.30
2017-08-29T21:12:54.789Z,20.20
2017-08-29T21:15:23.069Z,20.00
2017-08-29T21:17:51.361Z,20.00
2017-08-29T21:20:19.638Z,19.90
2017-08-29T21:22:47.867Z,19.90
2017-08-29T21:25:16.136Z,19.90
2017-08-29T21:27:44.421Z,19.90
2017-08-29T21:30:13.035Z,19.90
2017-08-29T21:32:41.298Z,20.00
2017-08-29T21:35:09.564Z,19.90
2017-08-29T21:37:37.853Z,19.90
2017-08-29T21:40:06.144Z,19.90
2017-08-29T21:42:34.379Z,19.90
2017-08-29T21:45:02.663Z,19.90
2017-08-29T21:47:30.942Z,19.80
2017-08-29T21:49:59.214Z,19.80
2017-08-29T21:52:27.593Z,19.80
2017-08-29T21:54:55.856Z,19.80
2017-08-29T21:57:24.073Z,19.90
2017-08-29T21:59:52.384Z,19.80
2017-08-29T22:02:20.634Z,19.80
2017-08-29T22:04:48.887Z,19.80
2017-08-29T22:07:17.184Z,19.70
2017-08-29T22:09:45.452Z,19.60
2017-08-29T22:12:13.707Z,19.40
2017-08-29T22:14:41.975Z,19.30
2017-08-29T22:17:10.246Z,19.20
2017-08-29T22:19:38.466Z,19.20
2017-08-29T22:22:06.721Z,19.20
2017-08-29T22:24:35.004Z,19.20
2017-08-29T22:27:03.267Z,19.10
2017-08-29T22:29:32.271Z,19.00
2017-08-29T22:32:00.563Z,19.00
2017-08-29T22:34:28.819Z,18.90
2017-08-29T22:36:57.086Z,18.90
2017-08-29T22:39:25.376Z,18.90
2017-08-29T22:41:53.624Z,19.00
2017-08-29T22:44:21.877Z,19.00
2017-08-29T22:46:50.147Z,18.90
2017-08-29T22:49:18.382Z,18.90
2017-08-29T22:51:46.647Z,18.90
2017-08-29T22:54:14.902Z,18.80
2017-08-29T22:59:40.481Z,18.80
2017-08-29T23:02:08.738Z,18.80
2017-08-29T23:04:36.984Z,18.70
2017-08-29T23:07:05.263Z,18.70
2017-08-29T23:09:33.527Z,18.70
2017-08-29T23:12:01.793Z,18.70
2017-08-29T23:14:30.033Z,18.80
2017-08-29T23:16:59.248Z,18.70
2017-08-29T23:19:27.514Z,18.70
2017-08-29T23:21:55.779Z,18.60
2017-08-29T23:24:24.082Z,18.70
2017-08-29T23:26:52.331Z,18.70
2017-08-29T23:29:20.599Z,18.70
2017-08-29T23:31:48.880Z,18.70
2017-08-29T23:34:17.161Z,18.60
2017-08-29T23:36:45.424Z,18.60
2017-08-29T23:39:13.696Z,18.50
2017-08-29T23:41:41.939Z,18.50
2017-08-29T23:44:10.187Z,18.40
2017-08-29T23:46:38.451Z,18.30
2017-08-29T23:49:06.712Z,18.30
2017-08-29T23:51:34.957Z,18.30
2017-08-29T23:54:03.211Z,18.20
2017-08-29T23:56:31.467Z,18.20
2017-08-29T23:58:59.719Z,18.20
